Time;durP1;ratioP1;P1;durP2;ratioP2;P2;SDS_P1;SDS_P2;PMS_P1;PMS_P2;Temp;Humidity;BMP_temperature;BMP_pressure;BME280_temperature;BME280_humidity;BME280_pressure;Samples;Min_cycle;Max_cycle;Signal;HPM_P1;HPM_P2
2021/09/04 00:02:05;;;;;;;16.40;6.15;;;;;;;13.39;100.00;97617.59;5064142;28;20066;-80
2021/09/04 00:04:31;;;;;;;11.30;5.60;;;;;;;13.38;100.00;97621.25;5054545;28;20028;-81
2021/09/04 00:06:57;;;;;;;9.10;6.03;;;;;;;13.29;100.00;97605.78;5063226;28;20013;-80
2021/09/04 00:09:23;;;;;;;10.00;6.32;;;;;;;13.28;100.00;97627.41;5075483;28;20016;-80
2021/09/04 00:11:49;;;;;;;9.80;6.63;;;;;;;13.18;100.00;97621.81;5040541;28;20028;-80
2021/09/04 00:14:14;;;;;;;10.95;6.07;;;;;;;13.02;100.00;97613.09;5075442;28;20031;-80
2021/09/04 00:16:40;;;;;;;7.90;5.75;;;;;;;13.18;100.00;97653.19;5075063;28;20093;-80
2021/09/04 00:19:05;;;;;;;9.00;5.75;;;;;;;13.15;100.00;97640.84;5075344;28;20056;-80
2021/09/04 00:21:31;;;;;;;9.48;6.00;;;;;;;13.17;100.00;97622.78;5040619;28;20059;-80
2021/09/04 00:23:57;;;;;;;9.25;5.90;;;;;;;13.22;100.00;97617.97;5057982;28;20028;-80
2021/09/04 00:26:27;;;;;;;9.48;6.05;;;;;;;13.07;100.00;97612.78;5057538;28;20099;-80
2021/09/04 00:28:53;;;;;;;10.65;6.25;;;;;;;13.24;100.00;97640.19;5058009;28;20021;-80
2021/09/04 00:31:18;;;;;;;8.15;5.80;;;;;;;13.03;100.00;97634.47;5048385;28;20036;-81
2021/09/04 00:33:44;;;;;;;9.90;5.90;;;;;;;13.01;100.00;97631.03;5040607;28;20435;-81
2021/09/04 00:36:09;;;;;;;17.80;6.28;;;;;;;13.02;100.00;97632.75;5054468;28;20024;-80
2021/09/04 00:38:35;;;;;;;10.35;5.85;;;;;;;13.01;100.00;97638.25;5074928;28;20094;-80
2021/09/04 00:41:01;;;;;;;10.75;6.57;;;;;;;13.00;100.00;97631.16;5037040;28;20149;-80
2021/09/04 00:43:26;;;;;;;10.35;5.90;;;;;;;12.99;100.00;97626.72;5055676;28;20036;-80
2021/09/04 00:45:52;;;;;;;8.98;5.95;;;;;;;12.93;100.00;97630.72;5053410;28;20101;-81
2021/09/04 00:48:17;;;;;;;9.40;6.03;;;;;;;12.66;100.00;97600.44;5038346;28;20032;-80
2021/09/04 00:50:43;;;;;;;11.93;6.32;;;;;;;12.64;100.00;97617.59;5053605;28;20025;-80
2021/09/04 00:53:08;;;;;;;10.15;6.25;;;;;;;12.70;100.00;97614.50;5053392;28;20562;-79
2021/09/04 00:55:34;;;;;;;12.85;6.20;;;;;;;12.75;100.00;97620.41;5053630;28;20033;-80
2021/09/04 00:58:00;;;;;;;10.70;6.18;;;;;;;12.83;100.00;97618.03;5052589;28;20111;-81
2021/09/04 01:00:26;;;;;;;10.38;6.45;;;;;;;12.77;100.00;97624.69;5064729;28;20491;-81
2021/09/04 01:02:52;;;;;;;7.97;5.53;;;;;;;12.71;100.00;97609.00;5073290;28;20092;-82
2021/09/04 01:05:17;;;;;;;9.13;5.70;;;;;;;12.65;100.00;97597.84;5039904;28;20036;-81
2021/09/04 01:07:43;;;;;;;12.13;5.72;;;;;;;12.66;100.00;97616.53;5074483;28;20103;-81
2021/09/04 01:10:10;;;;;;;8.52;5.90;;;;;;;12.65;100.00;97596.00;5036709;28;20039;-81
2021/09/04 01:12:37;;;;;;;9.15;6.20;;;;;;;12.77;100.00;97613.94;5031630;28;20024;-80
2021/09/04 01:15:06;;;;;;;14.18;6.38;;;;;;;12.79;100.00;97612.03;5064719;28;20028;-80
2021/09/04 01:17:33;;;;;;;12.23;6.38;;;;;;;12.80;100.00;97604.81;5056134;28;20032;-81
2021/09/04 01:19:59;;;;;;;12.60;6.70;;;;;;;12.77;100.00;97596.97;5050979;28;20411;-81
2021/09/04 01:22:24;;;;;;;10.20;6.57;;;;;;;12.76;100.00;97601.50;5039231;28;20051;-80
2021/09/04 01:24:51;;;;;;;9.57;6.15;;;;;;;12.61;100.00;97590.97;5051190;28;20449;-80
2021/09/04 01:27:18;;;;;;;13.15;6.43;;;;;;;12.57;100.00;97584.97;5050557;28;20067;-80
2021/09/04 01:29:44;;;;;;;7.75;5.82;;;;;;;12.48;100.00;97596.34;5055984;28;20554;-81
2021/09/04 01:32:10;;;;;;;9.80;6.60;;;;;;;12.42;100.00;97581.53;5035884;28;20036;-81
2021/09/04 01:34:36;;;;;;;8.20;5.80;;;;;;;12.52;100.00;97590.63;5038909;28;20124;-81
2021/09/04 01:37:01;;;;;;;10.55;6.82;;;;;;;12.50;100.00;97583.66;5035690;28;20036;-81
2021/09/04 01:39:28;;;;;;;11.20;6.18;;;;;;;12.23;100.00;97548.88;5055729;28;20036;-79
2021/09/04 01:41:53;;;;;;;11.75;6.88;;;;;;;12.54;100.00;97584.31;5055880;28;20040;-79
2021/09/04 01:44:19;;;;;;;13.27;7.20;;;;;;;12.57;100.00;97589.47;5052724;28;20029;-82
2021/09/04 01:46:44;;;;;;;12.15;6.68;;;;;;;12.57;100.00;97589.47;5053620;28;20056;-80
2021/09/04 01:49:10;;;;;;;11.98;6.40;;;;;;;12.58;100.00;97586.66;5052631;28;20087;-80
2021/09/04 01:51:35;;;;;;;15.55;6.75;;;;;;;12.28;100.00;97544.03;5049080;28;20025;-82
2021/09/04 01:54:01;;;;;;;11.02;7.32;;;;;;;12.26;100.00;97562.06;5055561;28;20086;-80
2021/09/04 01:56:27;;;;;;;15.48;7.10;;;;;;;12.40;100.00;97580.75;5038725;28;20039;-80
2021/09/04 01:58:52;;;;;;;12.95;7.25;;;;;;;12.32;100.00;97572.38;5055452;28;20033;-80
2021/09/04 02:01:18;;;;;;;16.63;7.10;;;;;;;12.22;100.00;97551.66;5038938;28;20029;-79
2021/09/04 02:03:43;;;;;;;15.07;6.95;;;;;;;12.26;100.00;97571.94;5035738;28;20035;-80
2021/09/04 02:06:09;;;;;;;10.77;7.30;;;;;;;12.16;100.00;97563.66;5052337;28;20040;-80
2021/09/04 02:08:35;;;;;;;11.98;7.15;;;;;;;12.32;100.00;97585.78;5048124;28;20037;-80
2021/09/04 02:11:01;;;;;;;15.82;7.47;;;;;;;12.17;100.00;97568.06;5072548;28;20142;-80
2021/09/04 02:13:28;;;;;;;12.25;7.03;;;;;;;12.11;100.00;97581.91;5055579;28;20028;-80
2021/09/04 02:15:53;;;;;;;10.82;6.38;;;;;;;12.09;100.00;97577.59;5036778;28;20481;-79
2021/09/04 02:18:20;;;;;;;10.57;6.13;;;;;;;12.16;100.00;97578.88;5038470;28;20039;-81
2021/09/04 02:20:47;;;;;;;10.00;6.22;;;;;;;12.16;100.00;97573.53;5038379;28;20050;-79
2021/09/04 02:23:12;;;;;;;12.82;6.22;;;;;;;12.11;100.00;97571.16;5055058;28;20040;-80
2021/09/04 02:25:38;;;;;;;12.57;5.82;;;;;;;12.18;100.00;97585.03;5051754;28;20029;-76
2021/09/04 02:28:03;;;;;;;17.00;6.30;;;;;;;12.08;100.00;97568.69;5037162;28;20115;-76
2021/09/04 02:30:29;;;;;;;11.82;6.07;;;;;;;12.12;100.00;97577.41;5034745;28;20037;-76
2021/09/04 02:32:55;;;;;;;9.07;5.93;;;;;;;11.99;100.00;97577.34;5050552;28;20041;-76
2021/09/04 02:35:20;;;;;;;9.68;6.10;;;;;;;12.00;100.00;97581.72;5072502;28;20067;-76
2021/09/04 02:37:46;;;;;;;14.75;6.97;;;;;;;11.88;100.00;97580.75;5072141;28;20516;-76
2021/09/04 02:40:12;;;;;;;9.75;6.47;;;;;;;11.79;100.00;97569.78;5072563;28;20546;-77
2021/09/04 02:42:37;;;;;;;12.32;6.80;;;;;;;11.77;100.00;97560.97;5066617;28;20036;-78
2021/09/04 02:45:04;;;;;;;12.65;6.22;;;;;;;11.80;100.00;97567.00;5036313;28;20476;-77
2021/09/04 02:47:29;;;;;;;16.15;7.15;;;;;;;11.81;100.00;97571.38;5050838;28;20107;-78
2021/09/04 02:49:55;;;;;;;14.05;6.60;;;;;;;11.75;100.00;97563.75;5051685;28;20186;-77
2021/09/04 02:52:20;;;;;;;14.15;6.63;;;;;;;11.83;100.00;97569.47;5072052;28;20025;-77
2021/09/04 02:54:46;;;;;;;11.13;6.05;;;;;;;11.76;100.00;97543.19;5050704;28;20024;-77
2021/09/04 02:57:11;;;;;;;8.55;6.45;;;;;;;11.91;100.00;97559.09;5053869;28;20078;-78
2021/09/04 02:59:37;;;;;;;10.60;7.00;;;;;;;11.73;100.00;97532.66;5053973;28;20051;-77
2021/09/04 03:02:03;;;;;;;9.90;6.75;;;;;;;11.81;100.00;97551.78;5053808;28;20101;-77
2021/09/04 03:04:28;;;;;;;15.55;7.50;;;;;;;11.78;100.00;97552.81;5050702;28;20104;-77
2021/09/04 03:06:54;;;;;;;14.15;7.30;;;;;;;11.82;100.00;97548.13;5068304;28;20017;-78
2021/09/04 03:09:19;;;;;;;16.65;7.05;;;;;;;11.70;100.00;97538.22;5050720;28;20476;-77
2021/09/04 03:11:45;;;;;;;15.13;6.78;;;;;;;11.63;100.00;97529.69;5067663;28;20020;-77
2021/09/04 03:14:10;;;;;;;21.48;9.95;;;;;;;11.76;100.00;97551.22;5071853;28;20028;-77
2021/09/04 03:16:36;;;;;;;17.52;8.43;;;;;;;11.72;100.00;97555.91;5037304;28;20029;-78
2021/09/04 03:19:01;;;;;;;17.60;8.35;;;;;;;11.52;100.00;97532.25;5053660;28;20029;-76
2021/09/04 03:21:27;;;;;;;20.25;9.43;;;;;;;11.53;100.00;97536.66;5054061;28;20025;-77
2021/09/04 03:23:53;;;;;;;17.00;8.90;;;;;;;11.53;100.00;97530.44;5050431;28;20041;-77
2021/09/04 03:26:18;;;;;;;13.65;7.53;;;;;;;11.57;100.00;97545.31;5051630;28;20033;-77
2021/09/04 03:28:44;;;;;;;18.83;7.72;;;;;;;11.48;100.00;97537.88;5047310;28;20032;-77
2021/09/04 03:31:09;;;;;;;16.20;7.38;;;;;;;11.53;100.00;97552.72;5049023;28;20033;-77
2021/09/04 03:33:35;;;;;;;13.07;7.30;;;;;;;11.52;100.00;97556.34;5051358;28;20028;-77
2021/09/04 03:36:01;;;;;;;14.00;6.95;;;;;;;11.52;100.00;97551.00;5050212;28;20035;-77
2021/09/04 03:38:27;;;;;;;12.32;6.82;;;;;;;11.50;100.00;97552.06;5050416;28;20086;-77
2021/09/04 03:40:52;;;;;;;11.95;7.03;;;;;;;11.41;100.00;97532.09;5051322;28;20025;-78
2021/09/04 03:43:18;;;;;;;10.30;6.53;;;;;;;11.35;100.00;97544.03;5049925;28;20465;-78
2021/09/04 03:45:43;;;;;;;13.52;7.35;;;;;;;11.47;100.00;97546.91;5050462;28;20029;-78
2021/09/04 03:48:09;;;;;;;13.57;7.60;;;;;;;11.53;100.00;97560.75;5049910;28;20032;-78
2021/09/04 03:50:35;;;;;;;20.58;9.68;;;;;;;11.45;100.00;97544.31;5050394;28;20025;-78
2021/09/04 03:53:00;;;;;;;15.07;7.78;;;;;;;11.33;100.00;97532.59;5050167;28;20039;-78
2021/09/04 03:55:26;;;;;;;17.95;8.20;;;;;;;11.43;100.00;97557.81;5030291;28;20112;-76
2021/09/04 03:57:51;;;;;;;16.95;7.90;;;;;;;11.48;100.00;97559.31;5047052;28;20036;-77
2021/09/04 04:00:17;;;;;;;19.15;8.35;;;;;;;11.42;100.00;97548.06;5049553;28;20025;-77
2021/09/04 04:02:42;;;;;;;19.08;7.55;;;;;;;11.40;100.00;97549.97;5046609;28;20040;-77
2021/09/04 04:05:09;;;;;;;16.52;7.50;;;;;;;11.39;100.00;97568.81;5049527;28;20026;-77
2021/09/04 04:07:34;;;;;;;18.58;7.18;;;;;;;11.38;100.00;97565.28;5050322;28;20021;-77
2021/09/04 04:10:00;;;;;;;17.08;7.05;;;;;;;11.50;100.00;97565.44;5051269;28;20028;-77
2021/09/04 04:12:25;;;;;;;13.13;7.28;;;;;;;11.46;100.00;97566.59;5050013;28;20031;-77
2021/09/04 04:14:51;;;;;;;10.40;6.97;;;;;;;11.47;100.00;97576.38;5050179;28;20023;-77
2021/09/04 04:17:16;;;;;;;13.43;7.20;;;;;;;11.48;100.00;97573.56;5050104;28;20404;-77
2021/09/04 04:19:42;;;;;;;15.45;6.95;;;;;;;11.49;100.00;97574.44;5054295;28;20474;-77
2021/09/04 04:22:08;;;;;;;10.85;7.18;;;;;;;11.61;100.00;97582.53;5036757;28;20106;-77
2021/09/04 04:24:33;;;;;;;10.68;6.38;;;;;;;11.67;100.00;97582.13;5053792;28;20033;-77
2021/09/04 04:27:01;;;;;;;11.52;7.30;;;;;;;11.73;100.00;97586.25;5053730;28;20111;-77
2021/09/04 04:29:27;;;;;;;13.90;6.72;;;;;;;11.69;100.00;97565.97;5054945;28;20393;-77
2021/09/04 04:31:53;;;;;;;13.90;7.05;;;;;;;11.91;100.00;97577.00;5054688;28;20116;-77
2021/09/04 04:34:19;;;;;;;11.00;7.43;;;;;;;12.14;100.00;97588.88;5054323;28;20492;-77
2021/09/04 04:36:44;;;;;;;14.00;6.97;;;;;;;12.12;100.00;97561.31;5053353;28;20025;-77
2021/09/04 04:39:10;;;;;;;19.50;7.82;;;;;;;12.30;100.00;97582.38;5053082;28;20086;-77
2021/09/04 04:41:35;;;;;;;19.10;7.53;;;;;;;12.37;100.00;97590.81;5050093;28;20104;-77
2021/09/04 04:44:01;;;;;;;17.95;7.55;;;;;;;12.41;100.00;97579.78;5032678;28;20025;-77
2021/09/04 04:46:26;;;;;;;14.57;7.72;;;;;;;12.62;100.00;97595.38;5054117;28;20032;-77
2021/09/04 04:48:52;;;;;;;11.02;6.65;;;;;;;12.73;100.00;97600.88;5053307;28;20469;-78
2021/09/04 04:51:17;;;;;;;11.90;7.32;;;;;;;12.81;100.00;97572.50;5054375;28;20044;-77
2021/09/04 04:53:43;;;;;;;12.02;7.25;;;;;;;12.97;100.00;97596.47;5052805;28;20028;-77
2021/09/04 04:56:08;;;;;;;11.93;7.55;;;;;;;12.97;100.00;97585.72;5053684;28;20036;-77
2021/09/04 04:58:34;;;;;;;26.30;8.10;;;;;;;13.05;100.00;97570.78;5049344;28;20100;-78
2021/09/04 05:00:59;;;;;;;20.08;8.30;;;;;;;13.27;100.00;97578.19;5045294;28;20108;-77
2021/09/04 05:03:25;;;;;;;17.98;8.38;;;;;;;13.27;100.00;97580.88;5051640;28;20416;-77
2021/09/04 05:05:51;;;;;;;15.07;8.48;;;;;;;13.39;100.00;97596.09;5052828;28;20028;-79
2021/09/04 05:08:16;;;;;;;14.35;7.95;;;;;;;13.29;100.00;97559.28;5035958;28;20025;-82
2021/09/04 05:10:42;;;;;;;18.27;7.80;;;;;;;13.46;100.00;97578.56;5052916;28;20028;-82
2021/09/04 05:13:07;;;;;;;21.75;8.63;;;;;;;13.78;98.48;97607.59;5054050;28;20027;-77
2021/09/04 05:15:33;;;;;;;14.35;8.18;;;;;;;13.91;96.58;97589.56;5050525;28;20039;-79
2021/09/04 05:17:59;;;;;;;17.48;8.63;;;;;;;14.12;95.29;97596.88;5048770;28;20091;-79
2021/09/04 05:20:24;;;;;;;24.38;9.35;;;;;;;14.25;94.15;97591.44;5052407;28;20075;-77
2021/09/04 05:22:50;;;;;;;26.67;9.18;;;;;;;14.43;91.92;97573.91;5065053;28;20044;-77
2021/09/04 05:25:16;;;;;;;24.30;10.77;;;;;;;14.81;89.70;97595.19;5055308;28;20032;-78
2021/09/04 05:27:42;;;;;;;20.02;10.75;;;;;;;15.06;88.55;97596.81;5039004;28;20012;-78
2021/09/04 05:30:08;;;;;;;22.90;11.98;;;;;;;15.54;85.13;97603.69;5072783;28;20051;-78
2021/09/04 05:32:34;;;;;;;15.48;10.38;;;;;;;15.84;82.77;97592.25;5072137;28;20020;-79
2021/09/04 05:35:02;;;;;;;15.85;8.95;;;;;;;17.02;76.91;97587.53;5055695;28;20510;-77
2021/09/04 05:37:27;;;;;;;16.65;9.00;;;;;;;18.02;71.66;97602.91;5073032;28;20503;-79
2021/09/04 05:39:54;;;;;;;16.38;9.55;;;;;;;19.46;65.35;97605.53;5038653;28;20025;-81
2021/09/04 05:42:19;;;;;;;24.27;9.60;;;;;;;19.90;62.50;97607.44;5055260;28;20025;-77
2021/09/04 05:44:45;;;;;;;16.92;8.60;;;;;;;20.26;61.27;97607.56;5073201;28;20029;-78
2021/09/04 05:47:10;;;;;;;21.52;8.50;;;;;;;21.11;57.26;97580.63;5073254;28;20392;-78
2021/09/04 05:49:36;;;;;;;19.25;10.63;;;;;;;21.16;56.83;97591.06;5055120;28;20024;-78
2021/09/04 05:52:02;;;;;;;24.80;10.65;;;;;;;21.48;55.94;97607.56;5052075;28;20028;-78
2021/09/04 05:54:28;;;;;;;18.75;9.68;;;;;;;21.78;54.08;97596.16;5071046;28;20043;-78
2021/09/04 05:56:53;;;;;;;19.35;8.48;;;;;;;23.14;50.98;97611.13;5035185;28;20037;-79
2021/09/04 05:59:19;;;;;;;22.65;8.65;;;;;;;24.01;48.20;97595.75;5032382;28;20036;-79
2021/09/04 06:01:45;;;;;;;16.55;8.85;;;;;;;24.35;46.55;97584.50;5051961;28;20032;-79
2021/09/04 06:04:10;;;;;;;23.85;10.05;;;;;;;24.49;46.24;97600.13;5047612;28;20033;-79
2021/09/04 06:06:36;;;;;;;16.40;8.75;;;;;;;24.34;46.40;97610.13;5072022;28;20485;-79
2021/09/04 06:09:02;;;;;;;11.38;7.80;;;;;;;23.22;48.32;97618.47;5072701;28;20029;-78
2021/09/04 06:11:29;;;;;;;14.43;8.95;;;;;;;24.05;47.15;97611.63;5053106;28;20454;-79
2021/09/04 06:13:56;;;;;;;13.40;7.72;;;;;;;25.73;43.45;97613.31;5038544;28;20518;-78
2021/09/04 06:16:22;;;;;;;18.17;8.35;;;;;;;26.22;42.05;97599.03;5054593;28;20028;-79
2021/09/04 06:18:47;;;;;;;14.32;8.00;;;;;;;25.86;42.21;97609.94;5054665;28;20036;-79
2021/09/04 06:21:13;;;;;;;15.85;8.32;;;;;;;26.63;41.29;97596.59;5051261;28;20032;-79
2021/09/04 06:23:39;;;;;;;13.07;8.13;;;;;;;27.48;39.27;97607.59;5053412;28;20059;-79
2021/09/04 06:26:04;;;;;;;21.80;11.73;;;;;;;27.44;39.48;97604.38;5034632;28;20472;-79
2021/09/04 06:28:30;;;;;;;24.85;9.13;;;;;;;28.06;38.32;97590.66;5050373;28;20029;-79
2021/09/04 06:30:55;;;;;;;18.00;9.10;;;;;;;28.78;37.09;97598.38;5051034;28;20063;-79
2021/09/04 06:33:21;;;;;;;24.88;11.23;;;;;;;28.61;37.15;97588.78;5047589;28;20112;-79
2021/09/04 06:35:46;;;;;;;19.65;9.20;;;;;;;26.83;39.68;97603.16;5071747;28;20082;-80
2021/09/04 06:38:13;;;;;;;14.43;9.05;;;;;;;25.92;41.37;97602.84;5050785;28;20029;-79
2021/09/04 06:40:39;;;;;;;15.55;8.27;;;;;;;27.16;40.11;97609.84;5053258;28;20024;-77
2021/09/04 06:43:04;;;;;;;14.18;8.43;;;;;;;27.54;38.51;97598.53;5033307;28;20397;-78
2021/09/04 06:45:30;;;;;;;14.90;8.98;;;;;;;28.98;36.51;97604.78;5032776;28;20040;-79
2021/09/04 06:47:55;;;;;;;15.98;7.53;;;;;;;28.65;36.71;97590.06;5072026;28;20012;-80
2021/09/04 06:50:21;;;;;;;21.17;8.60;;;;;;;29.13;36.10;97577.03;5054097;28;20031;-80
2021/09/04 06:52:47;;;;;;;27.00;13.73;;;;;;;29.09;36.25;97597.81;5071560;28;20381;-79
2021/09/04 06:55:12;;;;;;;28.40;14.68;;;;;;;28.47;37.41;97597.00;5071877;28;20122;-82
2021/09/04 06:57:38;;;;;;;29.50;15.88;;;;;;;29.61;34.52;97573.03;5036718;28;20032;-80
2021/09/04 07:00:07;;;;;;;35.78;16.90;;;;;;;28.96;35.71;97585.72;5050500;28;20484;-78
2021/09/04 07:02:32;;;;;;;38.28;18.00;;;;;;;30.47;34.05;97591.09;5032368;28;20025;-78
2021/09/04 07:04:58;;;;;;;39.20;19.13;;;;;;;30.12;33.91;97575.06;5050660;28;20036;-78
2021/09/04 07:07:23;;;;;;;41.42;19.23;;;;;;;30.29;33.98;97571.59;5067819;28;20021;-78
2021/09/04 07:09:49;;;;;;;37.03;19.50;;;;;;;30.50;33.30;97574.09;5053473;28;20031;-78
2021/09/04 07:12:14;;;;;;;34.83;20.63;;;;;;;31.26;31.96;97562.97;5071519;28;20028;-78
2021/09/04 07:14:40;;;;;;;28.10;17.05;;;;;;;30.71;31.81;97553.56;5035122;28;20029;-79
2021/09/04 07:17:05;;;;;;;43.60;18.98;;;;;;;30.38;32.94;97563.91;5071607;28;20028;-79
2021/09/04 07:19:31;;;;;;;30.13;17.35;;;;;;;31.21;31.21;97561.97;5053670;28;20029;-79
2021/09/04 07:21:56;;;;;;;27.08;13.77;;;;;;;31.83;30.09;97561.00;5036634;28;20056;-79
2021/09/04 07:24:22;;;;;;;23.95;10.18;;;;;;;31.19;30.53;97551.16;5053631;28;20461;-79
2021/09/04 07:26:48;;;;;;;15.88;9.27;;;;;;;31.18;31.08;97563.25;5071340;28;20024;-79
2021/09/04 07:29:13;;;;;;;14.10;9.13;;;;;;;31.26;30.81;97554.69;5050154;28;20060;-79
2021/09/04 07:31:39;;;;;;;15.32;9.55;;;;;;;31.53;30.38;97564.47;5069169;28;20024;-79
2021/09/04 07:34:04;;;;;;;19.30;9.57;;;;;;;32.43;29.19;97565.63;5053750;28;20402;-79
2021/09/04 07:36:30;;;;;;;22.67;9.93;;;;;;;33.26;28.18;97552.75;5049769;28;20029;-78
2021/09/04 07:38:55;;;;;;;11.38;6.78;;;;;;;31.73;29.39;97553.22;5045099;28;20025;-78
2021/09/04 07:41:21;;;;;;;21.17;8.00;;;;;;;32.19;28.99;97561.91;5050107;28;20029;-79
2021/09/04 07:43:47;;;;;;;13.85;6.47;;;;;;;31.45;29.98;97566.66;5051974;28;20097;-79
2021/09/04 07:46:12;;;;;;;7.63;5.72;;;;;;;32.88;28.67;97568.06;5053369;28;20070;-79
2021/09/04 07:48:38;;;;;;;12.23;6.05;;;;;;;33.97;26.35;97545.31;5052901;28;20499;-79
2021/09/04 07:51:03;;;;;;;15.07;6.43;;;;;;;34.00;26.32;97533.72;5053486;28;20035;-79
2021/09/04 07:53:29;;;;;;;9.85;5.57;;;;;;;34.55;25.86;97548.81;5072400;28;20028;-79
2021/09/04 07:55:54;;;;;;;11.05;5.88;;;;;;;35.04;24.65;97546.50;5056522;28;20028;-79
2021/09/04 07:58:20;;;;;;;9.73;5.50;;;;;;;34.87;25.01;97542.81;5054270;28;20408;-79
2021/09/04 08:00:45;;;;;;;18.92;5.50;;;;;;;35.38;24.02;97553.78;5055315;28;20030;-79
2021/09/04 08:03:11;;;;;;;12.77;4.97;;;;;;;35.87;23.46;97552.94;5074969;28;20032;-80
2021/09/04 08:05:37;;;;;;;6.78;4.47;;;;;;;32.61;26.79;97560.09;5074982;28;20443;-79
2021/09/04 08:08:03;;;;;;;9.48;4.70;;;;;;;33.23;26.54;97569.00;5053565;28;20024;-79
2021/09/04 08:10:28;;;;;;;8.68;5.30;;;;;;;33.49;25.83;97549.16;5052695;28;20028;-79
2021/09/04 08:12:57;;;;;;;12.30;4.95;;;;;;;34.44;24.99;97546.94;5057049;28;20035;-80
2021/09/04 08:15:22;;;;;;;10.18;4.53;;;;;;;35.48;24.14;97553.97;5036926;28;20028;-80
2021/09/04 08:17:48;;;;;;;6.22;4.20;;;;;;;34.67;24.71;97546.88;5072587;28;20498;-80
2021/09/04 08:20:14;;;;;;;6.57;4.10;;;;;;;35.52;23.05;97555.16;5053281;28;20091;-80
2021/09/04 08:22:39;;;;;;;7.93;4.45;;;;;;;36.30;22.71;97552.19;5050116;28;20114;-80
2021/09/04 08:25:06;;;;;;;8.90;4.45;;;;;;;33.91;24.93;97549.06;5054853;28;20024;-80
2021/09/04 08:27:32;;;;;;;7.65;4.38;;;;;;;33.72;26.04;97548.34;5053616;28;20032;-80
2021/09/04 08:29:57;;;;;;;7.50;4.32;;;;;;;33.55;25.32;97555.69;5054498;28;20087;-80
2021/09/04 08:32:23;;;;;;;6.38;3.90;;;;;;;34.19;24.52;97538.06;5054642;28;20025;-80
2021/09/04 08:34:48;;;;;;;6.80;3.70;;;;;;;35.63;23.52;97540.31;5036187;28;20033;-80
2021/09/04 08:37:14;;;;;;;4.43;3.50;;;;;;;35.54;23.54;97544.59;5053667;28;20458;-80
2021/09/04 08:39:40;;;;;;;12.35;4.25;;;;;;;35.97;23.20;97543.06;5054118;28;20033;-80
2021/09/04 08:42:05;;;;;;;6.10;3.92;;;;;;;37.09;22.01;97549.84;5053141;28;20033;-81
2021/09/04 08:44:31;;;;;;;10.48;4.47;;;;;;;36.63;22.72;97551.25;5049863;28;20029;-79
2021/09/04 08:46:57;;;;;;;9.27;3.55;;;;;;;35.95;23.41;97525.75;5050318;28;20032;-79
2021/09/04 08:49:23;;;;;;;4.88;3.90;;;;;;;36.76;22.38;97536.91;5049729;28;20033;-80
2021/09/04 08:51:49;;;;;;;13.63;5.57;;;;;;;37.13;22.14;97530.63;5050500;28;20036;-80
2021/09/04 08:54:14;;;;;;;9.88;6.20;;;;;;;37.67;22.08;97542.56;5032745;28;20033;-80
2021/09/04 08:56:41;;;;;;;10.70;6.00;;;;;;;36.92;22.18;97527.59;5050694;28;20409;-79
2021/09/04 08:59:07;;;;;;;15.63;6.00;;;;;;;37.20;22.64;97531.25;5052484;28;20469;-79
2021/09/04 09:01:32;;;;;;;23.35;4.38;;;;;;;35.60;23.38;97523.28;5049512;28;20087;-79
2021/09/04 09:04:07;;;;;;;13.02;4.25;;;;;;;35.13;23.75;97531.91;5052562;28;20135;-80
2021/09/04 09:06:36;;;;;;;5.78;3.72;;;;;;;32.97;25.72;97528.66;5053309;28;20496;-79
2021/09/04 09:09:21;;;;;;;10.77;4.00;;;;;;;33.67;24.00;97529.66;5052336;28;20167;-79
2021/09/04 09:11:55;;;;;;;6.32;3.65;;;;;;;33.24;25.39;97529.09;5053558;28;20029;-79
2021/09/04 09:14:25;;;;;;;8.02;4.00;;;;;;;34.78;24.25;97534.88;5035483;28;20021;-81
2021/09/04 09:16:56;;;;;;;9.35;3.75;;;;;;;34.98;22.06;97516.91;5049577;28;20025;-80
2021/09/04 09:19:28;;;;;;;5.70;3.65;;;;;;;36.90;21.70;97529.81;5048918;28;20492;-80
2021/09/04 09:22:10;;;;;;;7.95;4.50;;;;;;;37.46;20.32;97508.06;5055603;28;20049;-80
2021/09/04 09:24:35;;;;;;;6.25;3.60;;;;;;;38.21;19.67;97520.88;5049064;28;20468;-81
2021/09/04 09:27:01;;;;;;;5.53;3.40;;;;;;;37.16;20.65;97505.84;5050474;28;20071;-80
2021/09/04 09:29:32;;;;;;;4.57;3.42;;;;;;;37.91;20.27;97501.97;5053416;28;20048;-80
2021/09/04 09:32:10;;;;;;;9.50;3.88;;;;;;;38.46;19.39;97510.66;5035815;28;20404;-79
2021/09/04 09:34:41;;;;;;;14.23;4.40;;;;;;;37.72;20.06;97493.16;5052011;28;20033;-80
2021/09/04 09:37:07;;;;;;;7.88;3.65;;;;;;;37.49;20.50;97495.50;5052059;28;20071;-79
2021/09/04 09:39:35;;;;;;;9.18;3.90;;;;;;;37.27;19.87;97476.03;5040281;28;20511;-79
2021/09/04 09:42:02;;;;;;;8.80;3.67;;;;;;;37.23;20.27;97489.69;5031637;28;20046;-80
2021/09/04 09:44:30;;;;;;;9.38;3.63;;;;;;;37.89;19.91;97481.81;5048602;28;20378;-80
2021/09/04 09:47:01;;;;;;;7.70;3.63;;;;;;;38.37;19.44;97472.31;5049043;28;20045;-79
2021/09/04 09:49:29;;;;;;;6.37;3.60;;;;;;;39.04;20.58;97456.25;5051880;28;20035;-79
2021/09/04 09:52:00;;;;;;;4.85;3.85;;;;;;;38.68;20.22;97462.06;5048743;28;20496;-80
2021/09/04 09:54:26;;;;;;;4.22;3.65;;;;;;;40.07;20.25;97464.31;5051902;28;20091;-80
2021/09/04 09:56:56;;;;;;;7.93;3.90;;;;;;;39.49;19.85;97457.41;5051439;28;20063;-80
2021/09/04 09:59:23;;;;;;;4.43;3.67;;;;;;;39.13;18.96;97458.53;5051584;28;20052;-80
2021/09/04 10:01:49;;;;;;;7.00;3.30;;;;;;;38.08;19.32;97434.72;5052605;28;20024;-80
2021/09/04 10:04:15;;;;;;;7.45;4.88;;;;;;;38.63;19.42;97434.09;5051162;28;20025;-80
2021/09/04 10:06:42;;;;;;;5.45;4.00;;;;;;;39.27;18.94;97437.25;5043136;28;20116;-81
2021/09/04 10:09:08;;;;;;;8.95;4.07;;;;;;;40.11;18.14;97442.19;5033075;28;20057;-80
2021/09/04 10:11:36;;;;;;;8.88;3.50;;;;;;;39.94;18.21;97437.72;5031470;28;20501;-80
2021/09/04 10:14:02;;;;;;;4.00;3.60;;;;;;;40.93;17.03;97422.69;5032167;28;20039;-80
2021/09/04 10:16:27;;;;;;;10.15;3.83;;;;;;;40.65;17.09;97409.38;5034432;28;20029;-81
2021/09/04 10:18:53;;;;;;;12.40;4.75;;;;;;;39.15;18.54;97423.53;5031481;28;20033;-80
2021/09/04 10:21:19;;;;;;;6.13;4.88;;;;;;;39.35;18.04;97420.72;5034514;28;20136;-80
2021/09/04 10:23:53;;;;;;;4.90;3.60;;;;;;;38.66;18.58;97423.19;5071021;28;20044;-80
2021/09/04 10:26:21;;;;;;;7.25;3.30;;;;;;;39.52;18.15;97435.28;5054033;28;20020;-80
2021/09/04 10:29:05;;;;;;;16.02;4.30;;;;;;;39.66;18.11;97429.94;5050833;28;20025;-80
2021/09/04 10:31:52;;;;;;;10.15;4.40;;;;;;;38.33;18.71;97432.84;5046962;28;20028;-79
2021/09/04 10:34:28;;;;;;;6.93;4.10;;;;;;;37.51;20.05;97429.91;5053381;28;20036;-80
2021/09/04 10:37:11;;;;;;;9.70;3.97;;;;;;;37.20;19.88;97414.88;5050887;28;20025;-80
2021/09/04 10:39:59;;;;;;;6.72;4.10;;;;;;;36.99;20.56;97421.41;5047513;28;20023;-80
2021/09/04 10:42:28;;;;;;;5.13;4.10;;;;;;;37.00;19.90;97416.66;5050630;28;20036;-79
2021/09/04 10:45:10;;;;;;;7.80;4.10;;;;;;;36.14;20.79;97419.38;5067713;28;20028;-80
2021/09/04 10:47:42;;;;;;;;;;;;;;;34.64;22.24;97413.94;5054493;28;20424;-79
2021/09/04 10:50:14;;;;;;;6.15;3.53;;;;;;;35.53;21.12;97400.97;5053662;28;19913;-79
2021/09/04 10:52:46;;;;;;;4.45;3.80;;;;;;;37.68;19.64;97385.91;5071702;28;20039;-79
2021/09/04 10:55:31;;;;;;;4.63;3.70;;;;;;;38.71;18.95;97392.41;5071667;28;20032;-81
2021/09/04 10:58:14;;;;;;;5.45;3.42;;;;;;;37.96;18.82;97377.09;5054038;28;20090;-79
2021/09/04 11:00:48;;;;;;;5.70;3.95;;;;;;;38.50;18.83;97382.31;5053898;28;20051;-79
2021/09/04 11:03:18;;;;;;;9.50;4.53;;;;;;;38.33;19.15;97382.50;5053600;28;20085;-79
2021/09/04 11:05:53;;;;;;;11.05;4.35;;;;;;;38.91;19.05;97384.06;5071775;28;20113;-79
2021/09/04 11:08:27;;;;;;;7.70;4.00;;;;;;;40.08;17.90;97382.75;5052537;28;20029;-79
2021/09/04 11:11:12;;;;;;;6.80;4.18;;;;;;;40.24;17.15;97377.91;5050091;28;20405;-79
2021/09/04 11:13:47;;;;;;;4.30;3.60;;;;;;;40.38;17.51;97376.16;5046685;28;20113;-79
2021/09/04 11:16:33;;;;;;;5.90;4.22;;;;;;;40.52;17.95;97381.97;5071361;28;20043;-79
2021/09/04 11:19:05;;;;;;;5.50;3.30;;;;;;;39.96;17.91;97373.78;5033531;28;20025;-79
2021/09/04 11:21:31;;;;;;;15.85;4.07;;;;;;;40.63;17.04;97372.38;5041927;28;20108;-79
2021/09/04 11:23:57;;;;;;;14.60;9.25;;;;;;;40.61;17.19;97371.78;5049131;28;20039;-80